CheckWX is a tool to help pilots better visualize weather data.  It is not intended as a substitute for an official pre-flight weather briefing.

00:11:11 UTC

KWHP METAR
Whiteman Airport
Los Angeles, California, USA
Current

16 mins ago

KWHP 202355Z 00000KT 10SM BKN050 OVC080 12/03 A2964
Observed
Nov-20 @ 23:55 UTC
Visibility
10 SM
Flight Rules
VFR
Cloud Levels
  • Broken at 5,000' AGL
  • Overcast at 8,000' AGL
Temperature
12°C / 54°F
Dewpoint
C / 37°F
Humidity
54%
Altimeter
29.64" Hg
Pressure
1003.72 hPa
Previous

1 hour ago

KWHP 202255Z 12005KT 10SM BKN050 12/04 A2962
Observed
Nov-20 @ 22:55 UTC
Wind
  • 120° at 5 KTS
Visibility
10 SM
Flight Rules
VFR
Cloud Levels
  • Broken at 5,000' AGL
Temperature
12°C / 54°F
Dewpoint
C / 39°F
Humidity
58%
Altimeter
29.62" Hg
Pressure
1003.02 hPa
Previous

2 hours ago

KWHP 202150Z 08008G16KT 10SM SCT040 12/06 A2960
Observed
Nov-20 @ 21:50 UTC
Wind
  • 080° at 8 KTS
  • Gusting to 16 KTS
Visibility
10 SM
Flight Rules
VFR
Cloud Levels
  • Scattered at 4,000' AGL
Temperature
12°C / 54°F
Dewpoint
C / 43°F
Humidity
67%
Altimeter
29.6" Hg
Pressure
1002.42 hPa